Time;durP1;ratioP1;P1;durP2;ratioP2;P2;SDS_P1;SDS_P2;PMS_P1;PMS_P2;Temp;Humidity;BMP_temperature;BMP_pressure;BME280_temperature;BME280_humidity;BME280_pressure;Samples;Min_cycle;Max_cycle;Signal;HPM_P1;HPM_P2
2023/12/18 00:00:24;;;;;;;17.80;9.65;;;;;;;;;;5088545;28;20134;-70
2023/12/18 00:02:51;;;;;;;22.92;11.30;;;;;;;;;;5089149;28;20071;-69
2023/12/18 00:05:18;;;;;;;24.40;11.35;;;;;;;;;;5088891;28;20076;-70
2023/12/18 00:07:44;;;;;;;25.05;12.20;;;;;;;;;;5088560;28;20097;-70
2023/12/18 00:10:11;;;;;;;23.52;12.20;;;;;;;;;;5088527;28;20047;-69
2023/12/18 00:12:38;;;;;;;23.42;12.75;;;;;;;;;;5088852;28;20622;-70
2023/12/18 00:15:06;;;;;;;21.00;11.05;;;;;;;;;;5088904;28;20054;-70
2023/12/18 00:17:34;;;;;;;23.80;11.95;;;;;;;;;;5088729;28;20048;-70
2023/12/18 00:20:01;;;;;;;21.02;11.57;;;;;;;;;;5088639;28;20087;-70
2023/12/18 00:22:31;;;;;;;18.17;9.60;;;;;;;;;;5088645;28;20055;-70
2023/12/18 00:24:57;;;;;;;15.88;9.70;;;;;;;;;;5088021;28;20055;-70
2023/12/18 00:27:25;;;;;;;20.70;10.43;;;;;;;;;;5088786;28;20048;-70
2023/12/18 00:29:51;;;;;;;20.63;10.88;;;;;;;;;;5088674;28;20668;-70
2023/12/18 00:32:18;;;;;;;19.95;11.43;;;;;;;;;;5088910;28;20051;-70
2023/12/18 00:34:45;;;;;;;19.73;10.93;;;;;;;;;;5092786;28;20400;-69
2023/12/18 00:37:12;;;;;;;19.45;10.75;;;;;;;;;;5092179;28;20585;-70
2023/12/18 00:39:38;;;;;;;21.58;10.35;;;;;;;;;;5092194;28;20055;-70
2023/12/18 00:42:05;;;;;;;27.30;12.70;;;;;;;;;;5092603;28;20040;-70
2023/12/18 00:44:32;;;;;;;25.65;13.25;;;;;;;;;;5092627;28;20055;-70
2023/12/18 00:46:58;;;;;;;23.38;11.75;;;;;;;;;;5092190;28;20530;-70
2023/12/18 00:49:27;;;;;;;19.75;10.63;;;;;;;;;;5092437;28;20051;-70
2023/12/18 00:51:55;;;;;;;20.33;9.93;;;;;;;;;;5092150;28;20478;-70
2023/12/18 00:54:22;;;;;;;18.98;9.90;;;;;;;;;;5092484;28;20048;-70
2023/12/18 00:56:49;;;;;;;17.48;10.60;;;;;;;;;;5092217;28;20040;-70
2023/12/18 00:59:15;;;;;;;19.90;10.63;;;;;;;;;;5092252;28;20067;-70
2023/12/18 01:01:43;;;;;;;20.55;10.05;;;;;;;;;;5092034;28;20044;-70
2023/12/18 01:04:10;;;;;;;20.60;10.95;;;;;;;;;;5092120;28;20074;-70
2023/12/18 01:06:37;;;;;;;21.70;11.68;;;;;;;;;;5092163;28;20075;-70
2023/12/18 01:09:04;;;;;;;22.50;11.32;;;;;;;;;;5091965;28;20059;-70
2023/12/18 01:11:30;;;;;;;20.77;11.48;;;;;;;;;;5091813;28;20546;-70
2023/12/18 01:13:57;;;;;;;21.85;11.02;;;;;;;;;;5092067;28;20048;-70
2023/12/18 01:16:24;;;;;;;22.00;11.48;;;;;;;;;;5091768;28;20051;-70
2023/12/18 01:18:50;;;;;;;19.60;10.63;;;;;;;;;;5091617;28;20051;-70
2023/12/18 01:21:17;;;;;;;19.73;11.23;;;;;;;;;;5091449;28;20050;-69
2023/12/18 01:23:44;;;;;;;20.40;11.57;;;;;;;;;;5091593;28;20101;-69
2023/12/18 01:26:11;;;;;;;19.15;10.90;;;;;;;;;;5091753;28;20048;-70
2023/12/18 01:28:40;;;;;;;18.02;10.27;;;;;;;;;;5091760;28;20132;-70
2023/12/18 01:31:07;;;;;;;18.05;10.23;;;;;;;;;;5091797;28;20051;-70
2023/12/18 01:33:35;;;;;;;20.92;11.85;;;;;;;;;;5091858;28;20072;-70
2023/12/18 01:36:02;;;;;;;21.70;12.38;;;;;;;;;;5091656;28;20052;-70
2023/12/18 01:38:29;;;;;;;24.20;12.95;;;;;;;;;;5091317;28;20048;-69
2023/12/18 01:40:56;;;;;;;23.45;12.30;;;;;;;;;;5090853;28;20051;-70
2023/12/18 01:43:26;;;;;;;22.25;11.85;;;;;;;;;;5091136;28;20087;-69
2023/12/18 01:45:59;;;;;;;22.42;12.07;;;;;;;;;;5091464;28;20127;-70
2023/12/18 01:48:26;;;;;;;26.52;12.85;;;;;;;;;;5091089;28;20048;-69
2023/12/18 01:50:54;;;;;;;20.67;11.18;;;;;;;;;;5091547;28;20078;-70
2023/12/18 01:53:28;;;;;;;22.80;12.02;;;;;;;;;;5091628;28;20044;-70
2023/12/18 01:55:57;;;;;;;18.95;10.73;;;;;;;;;;5090657;28;20051;-69
2023/12/18 01:58:24;;;;;;;21.75;11.13;;;;;;;;;;5091114;28;20048;-69
2023/12/18 02:00:52;;;;;;;19.60;10.77;;;;;;;;;;5091308;28;20052;-69
2023/12/18 02:03:20;;;;;;;23.58;11.95;;;;;;;;;;5091081;28;20048;-70
2023/12/18 02:05:47;;;;;;;20.20;11.65;;;;;;;;;;5091450;28;20123;-69
2023/12/18 02:08:14;;;;;;;22.88;12.52;;;;;;;;;;5090877;28;20044;-69
2023/12/18 02:10:42;;;;;;;22.17;12.27;;;;;;;;;;5090671;28;20539;-69
2023/12/18 02:13:08;;;;;;;19.50;11.35;;;;;;;;;;5106265;28;20048;-70
2023/12/18 02:15:35;;;;;;;19.17;11.60;;;;;;;;;;5091044;28;20040;-70
2023/12/18 02:18:02;;;;;;;19.58;10.13;;;;;;;;;;5090548;28;20109;-70
2023/12/18 02:20:29;;;;;;;18.60;10.02;;;;;;;;;;5090345;28;20121;-70
2023/12/18 02:22:55;;;;;;;17.13;10.55;;;;;;;;;;5090534;28;20647;-70
2023/12/18 02:25:22;;;;;;;20.15;11.10;;;;;;;;;;5090116;28;20048;-70
2023/12/18 02:27:49;;;;;;;17.92;9.55;;;;;;;;;;5090273;28;20043;-70
2023/12/18 02:30:19;;;;;;;20.42;11.13;;;;;;;;;;5090906;28;20044;-70
2023/12/18 02:32:46;;;;;;;18.50;10.05;;;;;;;;;;5090364;28;20090;-69
2023/12/18 02:35:13;;;;;;;19.65;10.40;;;;;;;;;;5090597;28;20055;-70
2023/12/18 02:37:40;;;;;;;20.17;10.55;;;;;;;;;;5090147;28;20062;-70
2023/12/18 02:40:07;;;;;;;19.15;10.38;;;;;;;;;;5089241;28;20131;-69
2023/12/18 02:42:34;;;;;;;20.42;11.13;;;;;;;;;;5089985;28;20044;-69
2023/12/18 02:45:02;;;;;;;22.63;11.55;;;;;;;;;;5090562;28;20232;-69
2023/12/18 02:47:29;;;;;;;16.90;10.50;;;;;;;;;;5090262;28;20051;-70
2023/12/18 02:49:56;;;;;;;17.02;10.05;;;;;;;;;;5090129;28;20447;-69
2023/12/18 02:52:22;;;;;;;17.35;10.40;;;;;;;;;;5090487;28;20120;-69
2023/12/18 02:54:49;;;;;;;18.27;10.52;;;;;;;;;;5088814;28;20496;-70
2023/12/18 02:57:16;;;;;;;17.27;9.93;;;;;;;;;;5089934;28;20044;-70
2023/12/18 02:59:42;;;;;;;19.73;10.93;;;;;;;;;;5089771;28;20052;-70
2023/12/18 03:02:09;;;;;;;18.00;9.30;;;;;;;;;;5089685;28;20047;-69
2023/12/18 03:04:42;;;;;;;16.35;9.20;;;;;;;;;;5089755;28;20044;-69
2023/12/18 03:07:09;;;;;;;21.88;11.93;;;;;;;;;;5089699;28;20048;-69
2023/12/18 03:09:36;;;;;;;18.38;10.65;;;;;;;;;;5089254;28;20821;-69
2023/12/18 03:12:04;;;;;;;16.80;9.77;;;;;;;;;;5089497;28;20593;-69
2023/12/18 03:14:31;;;;;;;15.15;8.75;;;;;;;;;;5089433;28;20066;-69
2023/12/18 03:16:57;;;;;;;16.67;9.20;;;;;;;;;;5089639;28;20426;-69
2023/12/18 03:19:24;;;;;;;18.20;10.00;;;;;;;;;;5088860;28;20101;-69
2023/12/18 03:21:51;;;;;;;20.85;9.82;;;;;;;;;;5089273;28;20048;-69
2023/12/18 03:24:17;;;;;;;16.20;9.35;;;;;;;;;;5088977;28;20082;-69
2023/12/18 03:26:46;;;;;;;16.65;9.00;;;;;;;;;;5089781;28;20047;-69
2023/12/18 03:29:13;;;;;;;17.35;8.93;;;;;;;;;;5089076;28;20051;-69
2023/12/18 03:31:39;;;;;;;17.52;9.55;;;;;;;;;;5089492;28;20048;-69
2023/12/18 03:34:06;;;;;;;18.25;9.20;;;;;;;;;;5087782;28;20075;-69
2023/12/18 03:36:33;;;;;;;17.55;9.55;;;;;;;;;;5089076;28;20040;-69
2023/12/18 03:39:00;;;;;;;16.88;9.18;;;;;;;;;;5088395;28;20055;-71
2023/12/18 03:41:26;;;;;;;15.43;8.73;;;;;;;;;;5089281;28;20052;-71
2023/12/18 03:43:53;;;;;;;16.80;8.80;;;;;;;;;;5089140;28;20044;-69
2023/12/18 03:46:19;;;;;;;18.13;10.80;;;;;;;;;;5089320;28;20048;-69
2023/12/18 03:48:46;;;;;;;20.23;10.85;;;;;;;;;;5088644;28;20048;-69
2023/12/18 03:51:13;;;;;;;14.60;8.40;;;;;;;;;;5089045;28;20051;-69
2023/12/18 03:53:40;;;;;;;16.35;9.15;;;;;;;;;;5087134;28;20093;-69
2023/12/18 03:56:06;;;;;;;18.38;9.70;;;;;;;;;;5089159;28;20055;-69
2023/12/18 03:58:33;;;;;;;16.02;9.02;;;;;;;;;;5088566;28;20051;-69
2023/12/18 04:01:00;;;;;;;19.40;10.20;;;;;;;;;;5088645;28;20052;-69
2023/12/18 04:03:27;;;;;;;19.38;10.45;;;;;;;;;;5088502;28;20105;-69
2023/12/18 04:05:57;;;;;;;16.85;9.50;;;;;;;;;;5089133;28;20119;-71
2023/12/18 04:08:24;;;;;;;19.02;10.13;;;;;;;;;;5088545;28;20076;-71
2023/12/18 04:10:51;;;;;;;18.80;9.30;;;;;;;;;;5088425;28;20052;-71
2023/12/18 04:13:17;;;;;;;17.55;10.00;;;;;;;;;;5088787;28;20044;-71
2023/12/18 04:15:44;;;;;;;18.13;9.82;;;;;;;;;;5088414;28;20400;-71
2023/12/18 04:18:11;;;;;;;18.20;9.77;;;;;;;;;;5087981;28;20102;-71
2023/12/18 04:20:38;;;;;;;19.00;9.40;;;;;;;;;;5085215;28;20052;-71
2023/12/18 04:23:04;;;;;;;17.90;9.95;;;;;;;;;;5088125;28;20063;-70
2023/12/18 04:25:31;;;;;;;19.38;9.75;;;;;;;;;;5087674;28;20052;-71
2023/12/18 04:27:58;;;;;;;17.38;8.50;;;;;;;;;;5085588;28;20048;-71
2023/12/18 04:30:24;;;;;;;17.10;9.05;;;;;;;;;;5087893;28;20069;-71
2023/12/18 04:32:51;;;;;;;17.90;9.73;;;;;;;;;;5087801;28;20094;-71
2023/12/18 04:35:18;;;;;;;13.70;8.10;;;;;;;;;;5085176;28;20593;-71
2023/12/18 04:37:45;;;;;;;16.67;9.40;;;;;;;;;;5087813;28;20044;-71
2023/12/18 04:40:12;;;;;;;15.52;9.15;;;;;;;;;;5086854;28;20055;-71
2023/12/18 04:42:39;;;;;;;18.42;9.27;;;;;;;;;;5085345;28;20051;-71
2023/12/18 04:45:07;;;;;;;14.38;7.78;;;;;;;;;;5087826;28;20565;-69
2023/12/18 04:47:33;;;;;;;18.42;10.05;;;;;;;;;;5088068;28;20079;-69
2023/12/18 04:50:00;;;;;;;15.20;8.43;;;;;;;;;;5087510;28;20470;-69
2023/12/18 04:52:27;;;;;;;17.50;8.55;;;;;;;;;;5087966;28;20040;-69
2023/12/18 04:54:53;;;;;;;15.23;7.95;;;;;;;;;;5087448;28;20048;-70
2023/12/18 04:57:20;;;;;;;14.20;7.32;;;;;;;;;;5087788;28;20063;-69
2023/12/18 04:59:47;;;;;;;14.93;8.02;;;;;;;;;;5087320;28;20044;-69
2023/12/18 05:02:13;;;;;;;16.38;7.90;;;;;;;;;;5087575;28;20485;-70
2023/12/18 05:04:40;;;;;;;15.38;7.78;;;;;;;;;;5087395;28;20416;-69
2023/12/18 05:07:08;;;;;;;15.63;8.38;;;;;;;;;;5087905;28;20514;-69
2023/12/18 05:09:35;;;;;;;13.57;7.85;;;;;;;;;;5087896;28;20247;-69
2023/12/18 05:12:02;;;;;;;15.32;7.90;;;;;;;;;;5088169;28;20454;-69
2023/12/18 05:14:29;;;;;;;17.60;8.30;;;;;;;;;;5087876;28;20483;-69
2023/12/18 05:16:55;;;;;;;11.25;6.78;;;;;;;;;;5088347;28;20063;-70
2023/12/18 05:19:23;;;;;;;16.02;8.80;;;;;;;;;;5090680;28;20040;-70
2023/12/18 05:21:50;;;;;;;15.32;8.65;;;;;;;;;;5092087;28;20056;-70
2023/12/18 05:24:17;;;;;;;15.45;7.88;;;;;;;;;;5091094;28;20052;-69
2023/12/18 05:26:43;;;;;;;16.25;8.60;;;;;;;;;;5091636;28;20055;-70
2023/12/18 05:29:10;;;;;;;12.90;7.40;;;;;;;;;;5091389;28;20044;-69
2023/12/18 05:31:37;;;;;;;14.10;8.20;;;;;;;;;;5091748;28;20048;-69
2023/12/18 05:34:03;;;;;;;14.60;7.20;;;;;;;;;;5091243;28;20040;-70
2023/12/18 05:36:30;;;;;;;15.55;7.88;;;;;;;;;;5091586;28;20079;-69
2023/12/18 05:38:57;;;;;;;14.50;8.20;;;;;;;;;;5091037;28;20054;-69
2023/12/18 05:41:23;;;;;;;15.35;8.55;;;;;;;;;;5091329;28;20056;-69
2023/12/18 05:43:50;;;;;;;15.40;8.52;;;;;;;;;;5091362;28;20495;-69
2023/12/18 05:46:17;;;;;;;17.15;9.25;;;;;;;;;;5091641;28;20048;-69
2023/12/18 05:48:43;;;;;;;18.05;9.45;;;;;;;;;;5091405;28;20051;-69
2023/12/18 05:51:20;;;;;;;13.98;7.88;;;;;;;;;;5091010;28;20591;-69
2023/12/18 05:53:48;;;;;;;16.77;8.82;;;;;;;;;;5090845;28;20040;-70
2023/12/18 05:56:16;;;;;;;19.20;9.93;;;;;;;;;;5090935;28;20490;-69
2023/12/18 05:58:43;;;;;;;18.77;8.73;;;;;;;;;;5091185;28;20048;-70
2023/12/18 06:01:09;;;;;;;18.17;8.50;;;;;;;;;;5090525;28;20040;-69
2023/12/18 06:03:36;;;;;;;14.75;7.50;;;;;;;;;;5090864;28;20158;-71
2023/12/18 06:06:03;;;;;;;12.68;7.43;;;;;;;;;;5090573;28;20446;-69
2023/12/18 06:08:30;;;;;;;14.10;7.63;;;;;;;;;;5090363;28;20123;-69
2023/12/18 06:10:57;;;;;;;13.45;8.15;;;;;;;;;;5089728;28;20529;-70
2023/12/18 06:13:24;;;;;;;15.10;7.60;;;;;;;;;;5090273;28;20423;-70
2023/12/18 06:15:50;;;;;;;16.38;7.30;;;;;;;;;;5090329;28;20044;-70
2023/12/18 06:18:17;;;;;;;14.75;7.57;;;;;;;;;;5090363;28;20044;-70
2023/12/18 06:20:44;;;;;;;14.10;7.30;;;;;;;;;;5089837;28;20047;-70
2023/12/18 06:23:11;;;;;;;15.27;7.97;;;;;;;;;;5090511;28;20085;-69
2023/12/18 06:25:38;;;;;;;13.10;7.57;;;;;;;;;;5089374;28;20060;-69
2023/12/18 06:28:05;;;;;;;14.30;8.07;;;;;;;;;;5090445;28;20044;-69
2023/12/18 06:30:31;;;;;;;14.25;8.05;;;;;;;;;;5088368;28;20487;-69
2023/12/18 06:32:58;;;;;;;15.00;7.80;;;;;;;;;;5090259;28;20457;-69
2023/12/18 06:35:25;;;;;;;13.55;8.13;;;;;;;;;;5089863;28;20102;-69
2023/12/18 06:37:52;;;;;;;12.48;7.28;;;;;;;;;;5090038;28;20044;-69
2023/12/18 06:40:19;;;;;;;14.75;7.70;;;;;;;;;;5089528;28;20078;-69
2023/12/18 06:42:45;;;;;;;14.70;8.07;;;;;;;;;;5090543;28;20075;-69
2023/12/18 06:45:12;;;;;;;15.02;7.70;;;;;;;;;;5090434;28;20048;-69
2023/12/18 06:47:39;;;;;;;12.75;7.53;;;;;;;;;;5090097;28;20054;-69
2023/12/18 06:50:06;;;;;;;12.48;6.90;;;;;;;;;;5090013;28;20068;-69
2023/12/18 06:52:32;;;;;;;14.40;8.02;;;;;;;;;;5090294;28;20056;-69
2023/12/18 06:54:59;;;;;;;14.07;6.75;;;;;;;;;;5089196;28;20048;-69
2023/12/18 06:57:26;;;;;;;12.50;7.03;;;;;;;;;;5089958;28;20051;-69
2023/12/18 06:59:53;;;;;;;11.95;6.70;;;;;;;;;;5089703;28;20123;-69
2023/12/18 07:02:20;;;;;;;12.30;6.15;;;;;;;;;;5089619;28;20044;-69
2023/12/18 07:04:46;;;;;;;14.68;7.13;;;;;;;;;;5089570;28;20542;-69
2023/12/18 07:07:13;;;;;;;11.27;6.05;;;;;;;;;;5089777;28;20523;-69
2023/12/18 07:09:40;;;;;;;13.00;6.95;;;;;;;;;;5089160;28;20051;-69
2023/12/18 07:12:07;;;;;;;16.58;8.15;;;;;;;;;;5089580;28;20652;-69
2023/12/18 07:14:33;;;;;;;16.75;7.72;;;;;;;;;;5089394;28;20139;-69
2023/12/18 07:17:00;;;;;;;19.08;8.43;;;;;;;;;;5089210;28;20044;-69
2023/12/18 07:19:27;;;;;;;17.88;8.48;;;;;;;;;;5089322;28;20051;-69
2023/12/18 07:21:53;;;;;;;18.27;8.30;;;;;;;;;;5089328;28;20058;-69
2023/12/18 07:24:20;;;;;;;18.92;7.65;;;;;;;;;;5088924;28;20056;-69
2023/12/18 07:26:47;;;;;;;22.15;8.35;;;;;;;;;;5089407;28;20127;-70
2023/12/18 07:29:14;;;;;;;21.35;8.75;;;;;;;;;;5089398;28;20093;-71
2023/12/18 07:31:40;;;;;;;26.73;9.20;;;;;;;;;;5088755;28;20052;-69
2023/12/18 07:34:07;;;;;;;19.10;8.80;;;;;;;;;;5089209;28;20117;-69
2023/12/18 07:36:38;;;;;;;22.58;9.15;;;;;;;;;;5088836;28;20507;-71
2023/12/18 07:39:05;;;;;;;;;;;;;;;;;;5089401;28;20051;-69
2023/12/18 07:41:32;;;;;;;21.15;9.25;;;;;;;;;;5088070;28;19920;-71
2023/12/18 07:43:58;;;;;;;21.50;8.77;;;;;;;;;;5089338;28;20044;-69
2023/12/18 07:46:26;;;;;;;20.50;8.77;;;;;;;;;;5088772;28;20055;-68
2023/12/18 07:48:53;;;;;;;22.60;9.82;;;;;;;;;;5089247;28;20044;-69
2023/12/18 07:51:20;;;;;;;21.80;9.10;;;;;;;;;;5088304;28;20048;-69
2023/12/18 07:53:47;;;;;;;18.48;8.57;;;;;;;;;;5088791;28;20055;-69
2023/12/18 07:56:15;;;;;;;22.60;9.30;;;;;;;;;;5088709;28;20055;-69
2023/12/18 07:58:41;;;;;;;17.77;8.98;;;;;;;;;;5089117;28;20040;-71
2023/12/18 08:01:08;;;;;;;20.00;9.00;;;;;;;;;;5088322;28;20532;-69
2023/12/18 08:03:35;;;;;;;17.85;8.65;;;;;;;;;;5088854;28;20101;-69
2023/12/18 08:06:03;;;;;;;19.67;10.45;;;;;;;;;;5088612;28;20072;-69
2023/12/18 08:08:29;;;;;;;24.85;12.25;;;;;;;;;;5088778;28;20055;-69
2023/12/18 08:10:56;;;;;;;23.88;9.73;;;;;;;;;;5088037;28;20052;-69
2023/12/18 08:13:23;;;;;;;19.88;10.13;;;;;;;;;;5088515;28;20135;-69
2023/12/18 08:15:50;;;;;;;18.40;10.00;;;;;;;;;;5088453;28;20044;-69
2023/12/18 08:18:17;;;;;;;23.48;12.35;;;;;;;;;;5088944;28;20044;-72
2023/12/18 08:20:45;;;;;;;21.80;11.10;;;;;;;;;;5088216;28;20044;-69
2023/12/18 08:23:11;;;;;;;18.13;10.10;;;;;;;;;;5088487;28;20040;-69
2023/12/18 08:25:41;;;;;;;20.92;11.05;;;;;;;;;;5087817;28;20051;-70
2023/12/18 08:28:07;;;;;;;21.13;11.48;;;;;;;;;;5088712;28;20113;-70
2023/12/18 08:30:34;;;;;;;19.67;10.93;;;;;;;;;;5088603;28;20044;-70
2023/12/18 08:33:01;;;;;;;19.85;10.93;;;;;;;;;;5088458;28;20048;-69
2023/12/18 08:35:28;;;;;;;20.13;10.52;;;;;;;;;;5088667;28;20055;-69
2023/12/18 08:37:54;;;;;;;19.90;10.73;;;;;;;;;;5088804;28;20048;-70
2023/12/18 08:40:21;;;;;;;13.48;8.07;;;;;;;;;;5088184;28;20040;-69
2023/12/18 08:42:48;;;;;;;15.50;8.55;;;;;;;;;;5088096;28;20055;-70
2023/12/18 08:45:14;;;;;;;16.40;8.57;;;;;;;;;;5088787;28;20117;-70
2023/12/18 08:47:41;;;;;;;19.20;9.88;;;;;;;;;;5088015;28;20050;-70
2023/12/18 08:50:09;;;;;;;15.15;8.52;;;;;;;;;;5088558;28;20497;-69
2023/12/18 08:52:36;;;;;;;17.17;9.90;;;;;;;;;;5088311;28;20072;-69
2023/12/18 08:55:03;;;;;;;17.20;9.05;;;;;;;;;;5091949;28;20044;-70
2023/12/18 08:57:30;;;;;;;15.80;8.85;;;;;;;;;;5092027;28;20516;-70
2023/12/18 08:59:56;;;;;;;14.10;8.52;;;;;;;;;;5092290;28;20109;-69
2023/12/18 09:02:23;;;;;;;17.05;8.82;;;;;;;;;;5092081;28;20060;-70
2023/12/18 09:04:50;;;;;;;15.63;8.68;;;;;;;;;;5092004;28;20435;-70
2023/12/18 09:07:17;;;;;;;18.65;10.18;;;;;;;;;;5092130;28;20120;-70
2023/12/18 09:09:43;;;;;;;16.52;9.40;;;;;;;;;;5091756;28;20124;-70
2023/12/18 09:12:10;;;;;;;19.33;9.65;;;;;;;;;;5090615;28;20050;-70
2023/12/18 09:14:37;;;;;;;19.15;10.52;;;;;;;;;;5092131;28;20204;-70
2023/12/18 09:17:04;;;;;;;17.15;9.82;;;;;;;;;;5091830;28;20547;-70
2023/12/18 09:19:30;;;;;;;17.25;9.52;;;;;;;;;;5091819;28;20471;-69
2023/12/18 09:21:57;;;;;;;18.77;10.20;;;;;;;;;;5091279;28;20051;-70
2023/12/18 09:24:25;;;;;;;16.13;9.80;;;;;;;;;;5091258;28;20068;-70
2023/12/18 09:26:52;;;;;;;17.38;9.85;;;;;;;;;;5091684;28;20048;-70
2023/12/18 09:29:19;;;;;;;16.17;8.48;;;;;;;;;;5091761;28;20051;-70
2023/12/18 09:31:46;;;;;;;17.90;9.38;;;;;;;;;;5091376;28;20044;-70
2023/12/18 09:34:14;;;;;;;19.90;9.65;;;;;;;;;;5091640;28;20698;-70
2023/12/18 09:36:41;;;;;;;16.67;9.20;;;;;;;;;;5091146;28;20084;-70
2023/12/18 09:39:08;;;;;;;17.98;9.10;;;;;;;;;;5091205;28;20079;-70
2023/12/18 09:41:35;;;;;;;17.85;9.75;;;;;;;;;;5090877;28;20143;-70
2023/12/18 09:44:01;;;;;;;18.25;9.80;;;;;;;;;;5091439;28;20048;-69
2023/12/18 09:46:28;;;;;;;20.58;10.00;;;;;;;;;;5090076;28;20138;-70
2023/12/18 09:48:55;;;;;;;17.67;9.93;;;;;;;;;;5091328;28;20525;-70
2023/12/18 09:51:28;;;;;;;16.00;9.55;;;;;;;;;;5089549;28;20412;-70
2023/12/18 09:53:55;;;;;;;14.63;9.02;;;;;;;;;;5091151;28;20047;-69
2023/12/18 09:56:23;;;;;;;14.43;9.40;;;;;;;;;;5089894;28;20052;-70
2023/12/18 09:58:54;;;;;;;16.38;9.45;;;;;;;;;;5091003;28;20054;-70
2023/12/18 10:01:22;;;;;;;16.92;9.60;;;;;;;;;;5091013;28;20044;-70
2023/12/18 10:03:49;;;;;;;16.15;9.30;;;;;;;;;;5090287;28;20044;-70
2023/12/18 10:06:17;;;;;;;18.77;10.32;;;;;;;;;;5090833;28;20044;-70
2023/12/18 10:08:44;;;;;;;19.83;10.73;;;;;;;;;;5090184;28;20040;-70
2023/12/18 10:11:25;;;;;;;17.23;9.70;;;;;;;;;;5090631;28;20488;-70
2023/12/18 10:13:55;;;;;;;16.13;10.15;;;;;;;;;;5090739;28;20105;-69
2023/12/18 10:16:22;;;;;;;18.65;9.80;;;;;;;;;;5090843;28;20052;-70
2023/12/18 10:18:49;;;;;;;17.55;10.00;;;;;;;;;;5090625;28;20127;-70
2023/12/18 10:21:22;;;;;;;15.77;9.02;;;;;;;;;;5090589;28;20053;-70
2023/12/18 10:23:52;;;;;;;16.08;9.25;;;;;;;;;;5089689;28;20424;-70
2023/12/18 10:26:21;;;;;;;17.63;9.02;;;;;;;;;;5090627;28;20044;-70
2023/12/18 10:28:51;;;;;;;16.98;9.00;;;;;;;;;;5090589;28;20079;-70
2023/12/18 10:31:18;;;;;;;14.07;8.55;;;;;;;;;;5090637;28;20052;-70
2023/12/18 10:33:45;;;;;;;13.15;7.10;;;;;;;;;;5090860;28;20123;-71
2023/12/18 10:36:16;;;;;;;13.77;7.68;;;;;;;;;;5089582;28;20071;-70
2023/12/18 10:38:51;;;;;;;13.30;7.47;;;;;;;;;;5088873;28;20064;-70
2023/12/18 10:41:20;;;;;;;11.02;7.25;;;;;;;;;;5089905;28;20089;-70
2023/12/18 10:43:50;;;;;;;11.25;6.63;;;;;;;;;;5090027;28;20052;-70
2023/12/18 10:46:18;;;;;;;17.92;6.95;;;;;;;;;;5089551;28;20112;-71
2023/12/18 10:48:49;;;;;;;14.18;7.47;;;;;;;;;;5089654;28;20048;-70
2023/12/18 10:51:20;;;;;;;11.57;7.10;;;;;;;;;;5089914;28;20067;-70
2023/12/18 10:53:48;;;;;;;11.55;7.05;;;;;;;;;;5089201;28;20083;-70
2023/12/18 10:56:17;;;;;;;10.25;5.97;;;;;;;;;;5089846;28;20056;-71
2023/12/18 10:58:45;;;;;;;11.45;5.93;;;;;;;;;;5089384;28;20040;-70
2023/12/18 11:01:13;;;;;;;13.45;7.00;;;;;;;;;;5077203;28;20043;-70
2023/12/18 11:03:41;;;;;;;9.15;5.85;;;;;;;;;;5088907;28;20048;-70
2023/12/18 11:06:09;;;;;;;10.07;5.10;;;;;;;;;;5089344;28;20052;-72
2023/12/18 11:08:36;;;;;;;10.23;5.25;;;;;;;;;;5088823;28;20075;-70
2023/12/18 11:11:05;;;;;;;9.35;5.50;;;;;;;;;;5089516;28;20062;-70
2023/12/18 11:13:52;;;;;;;9.73;5.95;;;;;;;;;;5086365;28;20059;-69
2023/12/18 11:16:28;;;;;;;9.27;5.63;;;;;;;;;;5086946;28;20522;-70
2023/12/18 11:19:09;;;;;;;9.70;5.32;;;;;;;;;;5089047;28;20534;-70
2023/12/18 11:21:49;;;;;;;8.98;4.80;;;;;;;;;;5089490;28;20051;-70
2023/12/18 11:24:19;;;;;;;11.75;5.72;;;;;;;;;;5088473;28;20044;-70
2023/12/18 11:26:46;;;;;;;11.93;5.53;;;;;;;;;;5089436;28;20424;-70
2023/12/18 11:29:44;;;;;;;11.55;5.97;;;;;;;;;;5089139;28;20051;-70
2023/12/18 11:32:14;;;;;;;11.13;5.65;;;;;;;;;;5084252;28;20094;-70
2023/12/18 11:34:41;;;;;;;14.85;5.65;;;;;;;;;;5088814;28;20519;-70
2023/12/18 11:37:11;;;;;;;11.68;5.38;;;;;;;;;;5089210;28;20127;-69
2023/12/18 11:39:41;;;;;;;8.98;4.70;;;;;;;;;;5088300;28;20048;-70
2023/12/18 11:42:10;;;;;;;;;;;;;;;;;;5089664;28;20160;-70
2023/12/18 11:44:38;;;;;;;8.95;4.70;;;;;;;;;;5088962;28;20288;-70
2023/12/18 11:47:06;;;;;;;9.55;4.75;;;;;;;;;;5089356;28;20504;-70
2023/12/18 11:49:32;;;;;;;14.07;5.72;;;;;;;;;;5088766;28;20389;-70
2023/12/18 11:52:15;;;;;;;10.45;5.30;;;;;;;;;;5088594;28;20139;-70
2023/12/18 11:54:42;;;;;;;9.82;5.22;;;;;;;;;;5088195;28;20040;-70
2023/12/18 11:57:19;;;;;;;10.50;5.32;;;;;;;;;;5088329;28;20063;-70
2023/12/18 11:59:46;;;;;;;9.18;4.78;;;;;;;;;;5086007;28;20044;-70
2023/12/18 12:02:13;;;;;;;10.90;5.35;;;;;;;;;;5087973;28;20044;-70
2023/12/18 12:04:41;;;;;;;10.07;4.95;;;;;;;;;;5095033;28;20495;-70
2023/12/18 12:07:11;;;;;;;14.10;5.20;;;;;;;;;;5088348;28;20637;-70
2023/12/18 12:09:43;;;;;;;10.30;4.95;;;;;;;;;;5087862;28;20048;-70
2023/12/18 12:12:13;;;;;;;8.48;4.55;;;;;;;;;;5086097;28;20503;-70
2023/12/18 12:14:40;;;;;;;8.55;5.20;;;;;;;;;;5088139;28;20047;-70
2023/12/18 12:17:08;;;;;;;8.93;5.10;;;;;;;;;;5078775;28;20047;-70
2023/12/18 12:19:35;;;;;;;7.07;4.47;;;;;;;;;;5087898;28;20109;-70
2023/12/18 12:22:02;;;;;;;10.57;5.10;;;;;;;;;;5088442;28;20043;-70
2023/12/18 12:24:29;;;;;;;10.82;5.32;;;;;;;;;;5087549;28;20056;-70
2023/12/18 12:26:56;;;;;;;7.93;4.90;;;;;;;;;;5088544;28;20105;-70
2023/12/18 12:29:25;;;;;;;11.05;5.40;;;;;;;;;;5089307;28;20044;-70
2023/12/18 12:31:53;;;;;;;9.45;5.95;;;;;;;;;;5092037;28;20403;-70
2023/12/18 12:34:36;;;;;;;11.93;6.38;;;;;;;;;;5090830;28;20070;-71
2023/12/18 12:37:03;;;;;;;11.90;6.20;;;;;;;;;;5092325;28;20048;-70
2023/12/18 12:39:31;;;;;;;9.05;5.22;;;;;;;;;;5092477;28;20105;-70
2023/12/18 12:41:58;;;;;;;11.82;5.97;;;;;;;;;;5092883;28;20047;-70
2023/12/18 12:44:27;;;;;;;11.40;6.25;;;;;;;;;;5092137;28;20052;-70
2023/12/18 12:46:56;;;;;;;9.65;5.60;;;;;;;;;;5092515;28;20044;-70
2023/12/18 12:49:23;;;;;;;11.40;5.87;;;;;;;;;;5092618;28;20048;-70
2023/12/18 12:51:50;;;;;;;11.45;5.72;;;;;;;;;;5092357;28;20040;-70
2023/12/18 12:54:19;;;;;;;9.13;5.40;;;;;;;;;;5091324;28;20044;-70
2023/12/18 12:56:45;;;;;;;9.77;5.15;;;;;;;;;;5092332;28;20135;-70
2023/12/18 12:59:12;;;;;;;11.38;4.57;;;;;;;;;;5092175;28;20504;-70
2023/12/18 13:01:39;;;;;;;11.02;4.72;;;;;;;;;;5092427;28;20040;-71
2023/12/18 13:04:05;;;;;;;10.27;4.63;;;;;;;;;;5092074;28;20473;-70
2023/12/18 13:06:32;;;;;;;11.38;5.03;;;;;;;;;;5092160;28;20516;-70
2023/12/18 13:08:59;;;;;;;9.35;4.57;;;;;;;;;;5091822;28;20052;-70
2023/12/18 13:11:26;;;;;;;10.85;4.28;;;;;;;;;;5092493;28;20055;-70
2023/12/18 13:13:54;;;;;;;7.25;3.95;;;;;;;;;;5091880;28;20055;-70
2023/12/18 13:16:34;;;;;;;6.20;3.88;;;;;;;;;;5091825;28;20040;-70
2023/12/18 13:19:01;;;;;;;10.05;4.60;;;;;;;;;;5092249;28;20052;-70
2023/12/18 13:21:28;;;;;;;8.43;4.88;;;;;;;;;;5091908;28;20087;-70
2023/12/18 13:23:55;;;;;;;7.53;4.40;;;;;;;;;;5090983;28;20175;-70
2023/12/18 13:26:22;;;;;;;6.45;4.50;;;;;;;;;;5091723;28;20055;-70
2023/12/18 13:28:49;;;;;;;7.82;4.00;;;;;;;;;;5091906;28;20075;-70
2023/12/18 13:31:16;;;;;;;10.27;4.65;;;;;;;;;;5091492;28;20407;-70
2023/12/18 13:33:46;;;;;;;10.52;4.70;;;;;;;;;;5091990;28;20109;-70
2023/12/18 13:36:13;;;;;;;8.73;4.43;;;;;;;;;;5091807;28;20128;-70
2023/12/18 13:38:40;;;;;;;7.90;4.30;;;;;;;;;;5090300;28;20047;-69
2023/12/18 13:41:07;;;;;;;8.70;4.07;;;;;;;;;;5091402;28;20484;-75
2023/12/18 13:43:33;;;;;;;8.50;4.90;;;;;;;;;;5077849;28;20063;-71
2023/12/18 13:46:00;;;;;;;8.25;4.10;;;;;;;;;;5087956;28;20105;-71
2023/12/18 13:48:27;;;;;;;8.38;4.38;;;;;;;;;;5082379;28;20447;-70
2023/12/18 13:50:54;;;;;;;7.55;4.63;;;;;;;;;;5070826;28;20040;-69
2023/12/18 13:53:20;;;;;;;9.60;4.72;;;;;;;;;;5071374;28;20078;-69
2023/12/18 13:55:47;;;;;;;7.68;4.95;;;;;;;;;;5084425;28;20050;-69
2023/12/18 13:58:15;;;;;;;9.18;4.65;;;;;;;;;;5090795;28;20055;-70
2023/12/18 14:00:44;;;;;;;9.27;4.88;;;;;;;;;;5090423;28;20044;-79
2023/12/18 14:03:15;;;;;;;9.03;4.67;;;;;;;;;;5091293;28;20054;-73
2023/12/18 14:05:42;;;;;;;;;;;;;;;;;;5090303;28;20341;-72
2023/12/18 14:08:09;;;;;;;8.57;5.32;;;;;;;;;;5090352;28;19935;-79
2023/12/18 14:10:35;;;;;;;8.40;4.60;;;;;;;;;;5093703;28;20500;-74
2023/12/18 14:13:02;;;;;;;9.82;5.10;;;;;;;;;;5091039;28;20048;-76
2023/12/18 14:15:29;;;;;;;8.65;4.30;;;;;;;;;;5090810;28;20067;-73
2023/12/18 14:17:59;;;;;;;8.73;4.68;;;;;;;;;;5092161;28;20048;-70
2023/12/18 14:20:27;;;;;;;8.82;4.95;;;;;;;;;;5100900;28;20059;-71
2023/12/18 14:22:54;;;;;;;7.82;4.97;;;;;;;;;;5102518;28;20146;-71
2023/12/18 14:25:21;;;;;;;9.23;5.20;;;;;;;;;;5096122;28;20052;-71
2023/12/18 14:27:51;;;;;;;9.85;4.95;;;;;;;;;;5099870;28;20074;-70
2023/12/18 14:30:17;;;;;;;9.00;5.32;;;;;;;;;;5101969;28;20044;-75